Wetterstation Vordersexau
Wetterdaten: Woche 25.12.17 - 31.12.17 (KW52)
Datum Zeit Temp. A. Feuchte A. Luftdruck Regen Wind Richtung Taupunkt Windchill Windben
25.12.2017 00:00 4,4 C 86 % 1024,1 hPa 0,0 l/m 0,0 km/h W 2,3 C 4,4 C 0,0 km/h
25.12.2017 01:00 4,3 C 86 % 1023,8 hPa 0,0 l/m 0,0 km/h W 2,2 C 4,3 C 0,0 km/h
25.12.2017 02:00 4,1 C 86 % 1023,4 hPa 0,0 l/m 0,0 km/h W 2,0 C 4,1 C 0,0 km/h
25.12.2017 03:00 3,8 C 86 % 1023,0 hPa 0,0 l/m 0,0 km/h W 1,7 C 3,8 C 0,0 km/h
25.12.2017 04:00 3,6 C 86 % 1022,6 hPa 0,0 l/m 0,0 km/h W 1,5 C 3,6 C 0,0 km/h
25.12.2017 05:00 3,2 C 86 % 1022,2 hPa 0,0 l/m 0,0 km/h W 1,1 C 3,2 C 0,0 km/h
25.12.2017 06:00 2,9 C 86 % 1021,6 hPa 0,0 l/m 0,0 km/h SW 0,8 C 2,9 C 0,0 km/h
25.12.2017 07:00 2,8 C 86 % 1021,0 hPa 0,0 l/m 0,0 km/h W-NW 0,7 C 2,8 C 0,0 km/h
25.12.2017 08:00 2,4 C 86 % 1020,8 hPa 0,0 l/m 0,0 km/h W 0,3 C 2,4 C 0,0 km/h
25.12.2017 09:00 2,6 C 86 % 1020,5 hPa 0,0 l/m 0,0 km/h SW 0,5 C 2,6 C 0,0 km/h
25.12.2017 10:00 3,0 C 86 % 1019,9 hPa 0,0 l/m 0,0 km/h SO 0,9 C 3,0 C 0,0 km/h
25.12.2017 11:00 4,5 C 86 % 1018,8 hPa 0,0 l/m 0,0 km/h N 2,4 C 4,5 C 0,0 km/h
25.12.2017 12:00 9,0 C 76 % 1017,4 hPa 0,0 l/m 0,0 km/h W-SW 5,0 C 9,0 C 0,0 km/h
25.12.2017 13:00 9,3 C 71 % 1016,3 hPa 0,0 l/m 0,0 km/h N-NW 4,3 C 9,3 C 0,0 km/h
25.12.2017 14:00 11,5 C 68 % 1015,4 hPa 0,0 l/m 0,0 km/h N 5,8 C 11,5 C 0,0 km/h
25.12.2017 15:00 11,0 C 67 % 1014,7 hPa 0,0 l/m 0,0 km/h N 5,1 C 11,0 C 0,0 km/h
25.12.2017 16:00 5,2 C 73 % 1014,6 hPa 0,0 l/m 0,0 km/h N-NO 0,8 C 5,2 C 0,0 km/h
25.12.2017 17:00 2,1 C 83 % 1014,1 hPa 0,0 l/m 0,0 km/h N-NO -0,5 C 2,1 C 0,0 km/h
25.12.2017 18:00 1,1 C 85 % 1014,0 hPa 0,0 l/m 0,0 km/h N-NO -1,1 C 1,1 C 0,0 km/h
25.12.2017 19:00 1,6 C 86 % 1013,3 hPa 0,0 l/m 0,0 km/h SW -0,5 C 1,6 C 0,0 km/h
25.12.2017 20:00 3,8 C 82 % 1012,8 hPa 0,0 l/m 0,0 km/h N-NO 1,0 C 3,8 C 0,0 km/h
25.12.2017 21:00 1,9 C 85 % 1012,1 hPa 0,0 l/m 0,0 km/h N-NO -0,3 C 1,9 C 0,0 km/h
25.12.2017 22:00 2,2 C 85 % 1011,6 hPa 0,0 l/m 0,0 km/h S-SO -0,1 C 2,2 C 0,0 km/h
25.12.2017 23:00 2,9 C 85 % 1011,3 hPa 0,0 l/m 7,8 km/h S-SO 0,6 C 1,6 C 4,3 km/h
26.12.2017 00:00 6,2 C 74 % 1010,8 hPa 0,0 l/m 12,3 km/h O-SO 1,9 C 2,0 C 6,8 km/h
26.12.2017 01:00 1,9 C 80 % 1009,8 hPa 0,0 l/m 0,0 km/h O -1,2 C 1,9 C 0,0 km/h
26.12.2017 02:00 1,8 C 84 % 1009,1 hPa 0,0 l/m 0,0 km/h SO -0,6 C 1,8 C 0,0 km/h
26.12.2017 03:00 1,8 C 86 % 1008,1 hPa 0,0 l/m 0,0 km/h S-SO -0,3 C 1,8 C 0,0 km/h
26.12.2017 04:00 4,8 C 83 % 1007,6 hPa 0,0 l/m 0,0 km/h SO 2,2 C 4,8 C 0,0 km/h
26.12.2017 05:00 5,5 C 82 % 1007,0 hPa 0,0 l/m 0,0 km/h NO 2,7 C 5,5 C 0,0 km/h
26.12.2017 06:00 5,9 C 81 % 1006,2 hPa 0,0 l/m 0,0 km/h N-NO 2,9 C 5,9 C 0,0 km/h
26.12.2017 07:00 3,8 C 84 % 1005,4 hPa 0,0 l/m 0,0 km/h N-NO 1,4 C 3,8 C 0,0 km/h
26.12.2017 08:00 5,0 C 83 % 1004,8 hPa 0,0 l/m 0,0 km/h SW 2,4 C 5,0 C 0,0 km/h
26.12.2017 09:00 10,1 C 67 % 1006,1 hPa 0,0 l/m 51,8 km/h SW 4,3 C -2,3 C 28,8 km/h
26.12.2017 10:00 8,9 C 73 % 1007,0 hPa 0,0 l/m 23,3 km/h SW 4,3 C 0,8 C 13,0 km/h
26.12.2017 11:00 9,9 C 66 % 1007,7 hPa 0,0 l/m 34,3 km/h S 3,9 C -0,3 C 19,1 km/h
26.12.2017 12:00 9,0 C 69 % 1007,6 hPa 0,0 l/m 31,8 km/h W-SW 3,6 C -1,1 C 17,6 km/h
26.12.2017 13:00 11,0 C 61 % 1007,4 hPa 0,0 l/m 20,1 km/h W-SW 3,8 C 4,5 C 11,2 km/h
26.12.2017 14:00 11,4 C 57 % 1006,6 hPa 0,0 l/m 26,6 km/h W-SW 3,2 C 3,4 C 14,8 km/h
26.12.2017 15:00 9,9 C 57 % 1006,1 hPa 0,0 l/m 22,0 km/h S-SO 1,8 C 2,5 C 12,2 km/h
26.12.2017 16:00 6,1 C 66 % 1005,5 hPa 0,0 l/m 10,4 km/h S-SO 0,2 C 3,0 C 5,8 km/h
26.12.2017 17:00 4,6 C 70 % 1004,7 hPa 0,0 l/m 3,9 km/h O-SO -0,4 C 4,6 C 2,2 km/h
26.12.2017 18:00 4,1 C 73 % 1004,1 hPa 0,0 l/m 0,0 km/h O-SO -0,3 C 4,1 C 0,0 km/h
26.12.2017 19:00 1,8 C 78 % 1003,1 hPa 0,0 l/m 0,0 km/h O -1,6 C 1,8 C 0,0 km/h
26.12.2017 20:00 1,3 C 81 % 1001,3 hPa 0,0 l/m 0,0 km/h O -1,6 C 1,3 C 0,0 km/h
26.12.2017 21:00 1,1 C 83 % 999,9 hPa 0,0 l/m 0,0 km/h O -1,5 C 1,1 C 0,0 km/h
26.12.2017 22:00 1,3 C 84 % 998,6 hPa 0,0 l/m 0,0 km/h O-SO -1,1 C 1,3 C 0,0 km/h
26.12.2017 23:00 1,4 C 83 % 997,4 hPa 0,0 l/m 0,0 km/h O-SO -1,2 C 1,4 C 0,0 km/h
27.12.2017 00:00 2,1 C 82 % 995,3 hPa 0,0 l/m 17,5 km/h O -0,6 C -5,8 C 9,7 km/h
27.12.2017 01:00 1,9 C 83 % 993,6 hPa 0,0 l/m 0,0 km/h NO -0,7 C 1,9 C 0,0 km/h
27.12.2017 02:00 2,8 C 81 % 991,9 hPa 0,0 l/m 0,0 km/h O-SO -0,1 C 2,8 C 0,0 km/h
27.12.2017 03:00 3,1 C 81 % 990,3 hPa 0,0 l/m 0,0 km/h N-NW 0,2 C 3,1 C 0,0 km/h
27.12.2017 04:00 2,5 C 81 % 989,6 hPa 0,0 l/m 0,0 km/h O-SO -0,4 C 2,5 C 0,0 km/h
27.12.2017 05:00 2,4 C 83 % 989,4 hPa 0,0 l/m 0,0 km/h SO -0,2 C 2,4 C 0,0 km/h
27.12.2017 06:00 2,9 C 84 % 988,9 hPa 0,0 l/m 0,0 km/h S-SO 0,5 C 2,9 C 0,0 km/h
27.12.2017 07:00 6,4 C 81 % 988,3 hPa 0,0 l/m 2,6 km/h S 3,4 C 6,4 C 1,4 km/h
27.12.2017 08:00 6,1 C 83 % 987,6 hPa 0,5 l/m 0,0 km/h S-SO 3,4 C 6,1 C 0,0 km/h
27.12.2017 09:00 6,3 C 84 % 986,6 hPa 0,5 l/m 0,0 km/h N 3,8 C 6,3 C 0,0 km/h
27.12.2017 10:00 6,7 C 85 % 986,3 hPa 0,0 l/m 0,0 km/h O-SO 4,4 C 6,7 C 0,0 km/h
27.12.2017 11:00 6,4 C 85 % 985,9 hPa 0,0 l/m 0,0 km/h S 4,1 C 6,4 C 0,0 km/h
27.12.2017 12:00 6,9 C 85 % 985,4 hPa 0,5 l/m 21,4 km/h S-SO 4,6 C -1,2 C 11,9 km/h
27.12.2017 13:00 7,6 C 80 % 984,4 hPa 0,0 l/m 5,8 km/h SO 4,4 C 7,6 C 3,2 km/h
27.12.2017 14:00 7,6 C 78 % 984,0 hPa 0,0 l/m 21,4 km/h SO 4,0 C -0,3 C 11,9 km/h
27.12.2017 15:00 7,4 C 77 % 983,7 hPa 0,0 l/m 0,0 km/h S-SO 3,6 C 7,4 C 0,0 km/h
27.12.2017 16:00 6,4 C 78 % 983,5 hPa 0,0 l/m 18,8 km/h W 2,8 C -0,9 C 10,4 km/h
27.12.2017 17:00 6,1 C 81 % 985,0 hPa 0,0 l/m 25,3 km/h SW 3,1 C -3,5 C 14,0 km/h
27.12.2017 18:00 4,9 C 85 % 985,8 hPa 0,5 l/m 38,2 km/h S-SW 2,6 C -8,3 C 21,2 km/h
27.12.2017 19:00 4,9 C 83 % 986,8 hPa 0,0 l/m 24,6 km/h SW 2,3 C -5,0 C 13,7 km/h
27.12.2017 20:00 4,3 C 83 % 987,9 hPa 0,0 l/m 23,3 km/h SW 1,7 C -5,3 C 13,0 km/h
27.12.2017 21:00 3,9 C 82 % 988,4 hPa 0,0 l/m 24,0 km/h SW 1,1 C -6,1 C 13,3 km/h
27.12.2017 22:00 3,8 C 82 % 988,6 hPa 0,0 l/m 30,5 km/h SW 1,0 C -8,2 C 16,9 km/h
27.12.2017 23:00 3,6 C 82 % 989,1 hPa 0,0 l/m 21,4 km/h SW 0,8 C -5,5 C 11,9 km/h
28.12.2017 00:00 3,4 C 83 % 989,6 hPa 0,0 l/m 29,8 km/h SW 0,8 C -8,6 C 16,6 km/h
28.12.2017 01:00 3,1 C 83 % 990,2 hPa 0,0 l/m 23,3 km/h SW 0,5 C -6,9 C 13,0 km/h
28.12.2017 02:00 2,9 C 83 % 991,1 hPa 0,0 l/m 12,3 km/h W-SW 0,3 C -1,9 C 6,8 km/h
28.12.2017 03:00 2,4 C 84 % 991,8 hPa 0,0 l/m 11,0 km/h W-SW -0,0 C -1,5 C 6,1 km/h
28.12.2017 04:00 1,3 C 86 % 993,1 hPa 0,5 l/m 22,7 km/h NW -0,8 C -9,1 C 12,6 km/h
28.12.2017 05:00 0,4 C 85 % 994,5 hPa 0,0 l/m 0,0 km/h W-NW -1,8 C 0,4 C 0,0 km/h
28.12.2017 06:00 0,2 C 84 % 995,7 hPa 0,0 l/m 0,0 km/h W-NW -2,2 C 0,2 C 0,0 km/h
28.12.2017 07:00 0,2 C 82 % 996,8 hPa 0,0 l/m 0,0 km/h W-NW -2,5 C 0,2 C 0,0 km/h
28.12.2017 08:00 0,3 C 80 % 997,9 hPa 0,0 l/m 0,0 km/h W -2,7 C 0,3 C 0,0 km/h
28.12.2017 09:00 0,8 C 78 % 999,0 hPa 0,0 l/m 0,0 km/h W -2,6 C 0,8 C 0,0 km/h
28.12.2017 10:00 1,1 C 78 % 1000,1 hPa 0,5 l/m 0,0 km/h W -2,3 C 1,1 C 0,0 km/h
28.12.2017 11:00 1,4 C 86 % 1000,4 hPa 0,5 l/m 0,0 km/h W -0,7 C 1,4 C 0,0 km/h
28.12.2017 12:00 1,3 C 86 % 1001,0 hPa 0,0 l/m 0,0 km/h SW -0,8 C 1,3 C 0,0 km/h
28.12.2017 13:00 1,5 C 86 % 1001,3 hPa 0,0 l/m 1,9 km/h S-SW -0,6 C 1,5 C 1,1 km/h
28.12.2017 14:00 1,6 C 86 % 1001,8 hPa 0,5 l/m 0,0 km/h S-SW -0,5 C 1,6 C 0,0 km/h
28.12.2017 15:00 1,6 C 85 % 1002,7 hPa 0,5 l/m 0,0 km/h S -0,6 C 1,6 C 0,0 km/h
28.12.2017 16:00 1,2 C 84 % 1003,7 hPa 0,0 l/m 0,0 km/h SW -1,2 C 1,2 C 0,0 km/h
28.12.2017 17:00 1,4 C 84 % 1004,6 hPa 0,5 l/m 0,0 km/h W -1,0 C 1,4 C 0,0 km/h
28.12.2017 18:00 1,2 C 84 % 1005,4 hPa 0,0 l/m 0,0 km/h S-SW -1,2 C 1,2 C 0,0 km/h
28.12.2017 19:00 0,4 C 84 % 1006,1 hPa 0,0 l/m 0,0 km/h W -2,0 C 0,4 C 0,0 km/h
28.12.2017 20:00 0,3 C 85 % 1006,8 hPa 0,0 l/m 0,0 km/h S -1,9 C 0,3 C 0,0 km/h
28.12.2017 21:00 0,1 C 85 % 1007,3 hPa 0,5 l/m 0,0 km/h N -2,1 C 0,1 C 0,0 km/h
28.12.2017 22:00 0,2 C 85 % 1008,0 hPa 0,0 l/m 0,0 km/h N -2,0 C 0,2 C 0,0 km/h
28.12.2017 23:00 -0,1 C 86 % 1008,5 hPa 0,0 l/m 0,0 km/h N -2,2 C -0,1 C 0,0 km/h
29.12.2017 00:00 -0,4 C 86 % 1009,2 hPa 0,0 l/m 0,0 km/h S-SO -2,4 C -0,4 C 0,0 km/h
29.12.2017 01:00 0,3 C 86 % 1009,5 hPa 0,0 l/m 0,0 km/h S-SO -1,8 C 0,3 C 0,0 km/h
29.12.2017 02:00 0,9 C 85 % 1010,0 hPa 0,0 l/m 5,8 km/h N-NO -1,3 C 0,9 C 3,2 km/h
29.12.2017 03:00 -0,1 C 85 % 1010,2 hPa 0,0 l/m 0,0 km/h SO -2,3 C -0,1 C 0,0 km/h
29.12.2017 04:00 0,2 C 85 % 1010,2 hPa 0,0 l/m 1,3 km/h O-SO -2,0 C 0,2 C 0,7 km/h
29.12.2017 05:00 -1,5 C 85 % 1010,1 hPa 0,0 l/m 0,0 km/h O-SO -3,7 C -1,5 C 0,0 km/h
29.12.2017 06:00 -2,1 C 86 % 1010,4 hPa 0,0 l/m 0,0 km/h S-SO -4,1 C -2,1 C 0,0 km/h
29.12.2017 07:00 -0,2 C 86 % 1010,1 hPa 0,0 l/m 0,0 km/h O -2,3 C -0,2 C 0,0 km/h
29.12.2017 08:00 0,2 C 84 % 1010,3 hPa 0,0 l/m 0,0 km/h NO -2,2 C 0,2 C 0,0 km/h
29.12.2017 09:00 4,7 C 80 % 1010,1 hPa 0,0 l/m 0,0 km/h S-SW 1,6 C 4,7 C 0,0 km/h
29.12.2017 10:00 7,8 C 64 % 1009,4 hPa 0,5 l/m 15,6 km/h S-SO 1,4 C 2,2 C 8,6 km/h
29.12.2017 11:00 7,3 C 56 % 1009,2 hPa 1,0 l/m 3,2 km/h S-SO -0,9 C 7,3 C 1,8 km/h
29.12.2017 12:00 5,8 C 58 % 1007,7 hPa 0,5 l/m 0,0 km/h S-SO -1,8 C 5,8 C 0,0 km/h
29.12.2017 13:00 3,8 C 64 % 1006,7 hPa 0,5 l/m 0,0 km/h O-SO -2,4 C 3,8 C 0,0 km/h
29.12.2017 14:00 3,0 C 66 % 1005,9 hPa 0,5 l/m 0,0 km/h S-SO -2,7 C 3,0 C 0,0 km/h
29.12.2017 15:00 3,1 C 67 % 1004,7 hPa 0,0 l/m 12,3 km/h SW -2,4 C -1,6 C 6,8 km/h
29.12.2017 16:00 4,1 C 64 % 1004,1 hPa 0,0 l/m 0,0 km/h W-SW -2,1 C 4,1 C 0,0 km/h
29.12.2017 17:00 3,9 C 71 % 1003,0 hPa 1,0 l/m 0,0 km/h W -0,9 C 3,9 C 0,0 km/h
29.12.2017 18:00 2,9 C 81 % 1002,0 hPa 0,5 l/m 0,0 km/h SW -0,0 C 2,9 C 0,0 km/h
29.12.2017 19:00 2,4 C 85 % 1002,8 hPa 2,1 l/m 0,0 km/h SW 0,1 C 2,4 C 0,0 km/h
29.12.2017 20:00 3,9 C 85 % 1003,4 hPa 0,0 l/m 25,9 km/h W 1,6 C -6,7 C 14,4 km/h
29.12.2017 21:00 4,1 C 85 % 1004,9 hPa 0,0 l/m 20,7 km/h SW 1,8 C -4,6 C 11,5 km/h
29.12.2017 22:00 4,6 C 83 % 1006,4 hPa 0,0 l/m 18,8 km/h S-SW 2,0 C -3,2 C 10,4 km/h
29.12.2017 23:00 4,9 C 82 % 1007,4 hPa 0,0 l/m 3,2 km/h S-SW 2,1 C 4,9 C 1,8 km/h
30.12.2017 00:00 5,1 C 81 % 1008,3 hPa 0,0 l/m 9,7 km/h S-SW 2,1 C 2,4 C 5,4 km/h
30.12.2017 01:00 5,3 C 81 % 1008,5 hPa 0,0 l/m 16,2 km/h S-SW 2,3 C -1,1 C 9,0 km/h
30.12.2017 02:00 5,1 C 80 % 1008,4 hPa 0,0 l/m 16,2 km/h S-SO 1,9 C -1,4 C 9,0 km/h
30.12.2017 03:00 5,5 C 78 % 1007,4 hPa 0,0 l/m 14,3 km/h SW 2,0 C 0,0 C 7,9 km/h
30.12.2017 04:00 5,7 C 79 % 1007,0 hPa 0,0 l/m 29,8 km/h S 2,3 C -5,3 C 16,6 km/h
30.12.2017 05:00 4,4 C 85 % 1006,7 hPa 0,5 l/m 0,0 km/h SO 2,1 C 4,4 C 0,0 km/h
30.12.2017 06:00 4,1 C 85 % 1005,9 hPa 0,0 l/m 0,0 km/h S-SO 1,8 C 4,1 C 0,0 km/h
30.12.2017 07:00 4,1 C 85 % 1005,3 hPa 0,5 l/m 0,0 km/h S-SW 1,8 C 4,1 C 0,0 km/h
30.12.2017 08:00 6,5 C 85 % 1004,5 hPa 0,0 l/m 3,9 km/h S 4,2 C 6,5 C 2,2 km/h
30.12.2017 09:00 7,7 C 84 % 1004,1 hPa 0,0 l/m 5,8 km/h W-SW 5,2 C 7,7 C 3,2 km/h
30.12.2017 10:00 8,9 C 82 % 1004,5 hPa 0,0 l/m 21,4 km/h W-SW 6,0 C 1,4 C 11,9 km/h
30.12.2017 11:00 10,0 C 82 % 1004,4 hPa 0,0 l/m 20,7 km/h W-SW 7,1 C 3,1 C 11,5 km/h
30.12.2017 12:00 11,1 C 82 % 1004,9 hPa 0,0 l/m 38,2 km/h SW 8,1 C 0,8 C 21,2 km/h
30.12.2017 13:00 11,9 C 83 % 1005,0 hPa 0,0 l/m 24,6 km/h SW 9,1 C 4,5 C 13,7 km/h
30.12.2017 14:00 13,0 C 82 % 1005,9 hPa 0,0 l/m 36,3 km/h S-SW 10,0 C 3,8 C 20,2 km/h
30.12.2017 15:00 13,1 C 82 % 1006,2 hPa 0,0 l/m 25,3 km/h W-SW 10,1 C 6,0 C 14,0 km/h
30.12.2017 16:00 12,7 C 84 % 1007,2 hPa 0,0 l/m 29,8 km/h W-SW 10,1 C 4,5 C 16,6 km/h
30.12.2017 17:00 12,6 C 84 % 1007,4 hPa 0,0 l/m 26,6 km/h SW 10,0 C 5,0 C 14,8 km/h
30.12.2017 18:00 12,1 C 84 % 1007,8 hPa 0,0 l/m 18,1 km/h SW 9,5 C 6,6 C 10,1 km/h
30.12.2017 19:00 12,3 C 84 % 1008,4 hPa 0,0 l/m 34,3 km/h SW 9,7 C 3,1 C 19,1 km/h
30.12.2017 20:00 12,6 C 84 % 1008,7 hPa 0,0 l/m 40,2 km/h SW 10,0 C 2,7 C 22,3 km/h
30.12.2017 21:00 12,9 C 83 % 1009,7 hPa 0,0 l/m 31,8 km/h SW 10,1 C 4,4 C 17,6 km/h
30.12.2017 22:00 13,0 C 81 % 1010,8 hPa 0,0 l/m 22,0 km/h SW 9,8 C 6,6 C 12,2 km/h
30.12.2017 23:00 13,1 C 78 % 1011,9 hPa 0,0 l/m 33,0 km/h SW 9,4 C 4,5 C 18,4 km/h
31.12.2017 00:00 13,1 C 77 % 1012,5 hPa 0,0 l/m 25,3 km/h SW 9,2 C 6,0 C 14,0 km/h
31.12.2017 01:00 12,3 C 81 % 1012,4 hPa 0,0 l/m 35,6 km/h W-SW 9,1 C 2,9 C 19,8 km/h
31.12.2017 02:00 12,1 C 80 % 1012,6 hPa 0,0 l/m 28,5 km/h S 8,8 C 3,9 C 15,8 km/h
31.12.2017 03:00 12,1 C 80 % 1012,8 hPa 0,0 l/m 21,4 km/h W-SW 8,8 C 5,6 C 11,9 km/h
31.12.2017 04:00 12,3 C 78 % 1012,3 hPa 0,0 l/m 34,3 km/h W-SW 8,6 C 3,1 C 19,1 km/h
31.12.2017 05:00 12,0 C 77 % 1011,8 hPa 0,0 l/m 26,6 km/h W-SW 8,1 C 4,2 C 14,8 km/h
31.12.2017 06:00 11,9 C 76 % 1012,5 hPa 0,0 l/m 25,3 km/h SW 7,8 C 4,3 C 14,0 km/h
31.12.2017 07:00 12,1 C 74 % 1012,3 hPa 0,0 l/m 33,0 km/h W-SW 7,6 C 3,1 C 18,4 km/h
31.12.2017 08:00 12,2 C 72 % 1012,5 hPa 0,0 l/m 13,6 km/h W 7,3 C 8,4 C 7,6 km/h
31.12.2017 09:00 12,7 C 69 % 1012,5 hPa 0,0 l/m 22,0 km/h W-SW 7,2 C 6,2 C 12,2 km/h
31.12.2017 10:00 13,3 C 66 % 1012,1 hPa 0,0 l/m 25,9 km/h W-SW 7,1 C 6,1 C 14,4 km/h
31.12.2017 11:00 13,6 C 65 % 1011,4 hPa 0,0 l/m 22,7 km/h W-SW 7,1 C 7,2 C 12,6 km/h
31.12.2017 12:00 14,3 C 64 % 1010,1 hPa 0,0 l/m 16,2 km/h SW 7,6 C 9,9 C 9,0 km/h
31.12.2017 13:00 14,6 C 61 % 1008,8 hPa 0,0 l/m 16,8 km/h SW 7,2 C 10,1 C 9,4 km/h
31.12.2017 14:00 14,3 C 61 % 1007,5 hPa 0,0 l/m 0,0 km/h SW 6,9 C 14,3 C 0,0 km/h
31.12.2017 15:00 13,8 C 61 % 1006,4 hPa 0,0 l/m 0,0 km/h S-SO 6,4 C 13,8 C 0,0 km/h
31.12.2017 16:00 9,9 C 70 % 1005,7 hPa 0,0 l/m 0,0 km/h NO 4,7 C 9,9 C 0,0 km/h
31.12.2017 17:00 8,3 C 78 % 1004,6 hPa 0,0 l/m 0,0 km/h O-SO 4,7 C 8,3 C 0,0 km/h
31.12.2017 18:00 7,9 C 80 % 1004,6 hPa 0,0 l/m 0,0 km/h SO 4,7 C 7,9 C 0,0 km/h
31.12.2017 19:00 7,1 C 82 % 1004,9 hPa 0,0 l/m 0,0 km/h W-SW 4,2 C 7,1 C 0,0 km/h
31.12.2017 20:00 9,1 C 78 % 1004,8 hPa 0,0 l/m 2,6 km/h SW 5,5 C 9,1 C 1,4 km/h
31.12.2017 21:00 11,9 C 63 % 1004,9 hPa 0,0 l/m 23,3 km/h S 5,1 C 4,8 C 13,0 km/h
31.12.2017 22:00 11,9 C 63 % 1005,5 hPa 0,0 l/m 31,8 km/h SW 5,1 C 3,0 C 17,6 km/h
31.12.2017 23:00 12,4 C 64 % 1005,9 hPa 0,0 l/m 29,2 km/h SW 5,8 C 4,2 C 16,2 km/h
Min-Datum _ 29.12.17 29.12.17 27.12.17 - 25.12.17 - 29.12.17 28.12.17 25.12.17
_ Min-Zeit 06:53 11:53 16:53 - 00:53 - 06:53 04:53 00:53
Minimum _ -2,1 C 56 % 983,5 hPa - 0,0 km/h - -4,1 C -9,1 C 0,0 km/h
Max-Datum _ 31.12.17 25.12.17 25.12.17 29.12.17 26.12.17 - 30.12.17 31.12.17 26.12.17
_ Max-Zeit 13:53 00:53 00:53 19:53 09:53 - 15:53 14:53 09:53
Maximum _ 14,6 C 86 % 1024,1 hPa 2,1 l/m 51,8 km/h
SW
- 10,1 C 14,3 C 28,8 km/h
SW
Durchschnitt _ 5,6 C 79 % 1005,0 hPa #13,5 l/m 9,9 km/h SW 2,3 C 2,5 C 5,5 km/h
www.sexauwetter.de